MSC Eleni — H3BQ — position and weather

sailwx.info

Track history (hours):
 
Tides and Currents Weather Stations Pressure Air Temp Water Temp Dewpoint Dewpoint Depression Visibility Wind Speed Wind Dir Waves Ship Positions

MSC Eleni

Last reported at 2017-Nov-17 13:48 UTC. Time now 2017-Nov-22 16:49 UTC.
Position N 35°57' W 005°33'.

Length 294 m; draft 8.2 m.

Type: Ship (hazmat cat A). MMSI: 357067000.

Date/timePositionNaut miles runAvg speedWind from/ knotsBaromVisibWave heightAir tempDewpointWater temp
2017-Nov-17 13:48N 35°57' W 005°33'310.8
2017-Nov-17 13:30N 35°58' W 005°30'612.3
2017-Nov-17 13:00N 36°01' W 005°23'713.4
2017-Nov-17 12:30N 36°03' W 005°15'223 8.9
2017-Nov-16 11:33N 37°20' W 000°54'113.4
2017-Nov-16 11:27N 37°21' W 000°53'613.2
2017-Nov-16 11:00N 37°25' W 000°47'713.2
2017-Nov-16 10:30N 37°29' W 000°41'713.4
2017-Nov-16 10:00N 37°33' W 000°35'713.4
2017-Nov-16 09:30N 37°39' W 000°29'713.4
2017-Nov-16 09:00N 37°45' W 000°25'713.6
2017-Nov-16 08:30N 37°51' W 000°21'713.6
2017-Nov-16 08:00N 37°57' W 000°18'210 5.7
2017-Nov-14 19:21N 40°59' E 001°57'514.3
2017-Nov-14 19:00N 41°04' E 002°01'817.1
2017-Nov-14 18:30N 41°11' E 002°06'713.7
2017-Nov-14 17:58N 41°18' E 002°10'1 0.1
2017-Nov-14 06:16N 41°19' E 002°09'1 1.9
2017-Nov-14 05:37N 41°18' E 002°11'1 6.1
2017-Nov-14 05:30N 41°18' E 002°11'5 6.2
2017-Nov-14 04:44N 41°13' E 002°12'310.5
2017-Nov-14 04:24N 41°10' E 002°14'610.6
2017-Nov-14 03:48N 41°04' E 002°11'411.4
2017-Nov-14 03:27N 41°01' E 002°08'45811.6
2017-Nov-12 11:51N 35°59' W 005°13'412.5
2017-Nov-12 11:30N 35°58' W 005°18'612.3
2017-Nov-12 11:00N 35°57' W 005°25'11512.5
2017-Nov-12 01:50N 36°13' W 007°47'413.1
2017-Nov-12 01:30N 36°14' W 007°52'1413.1
2017-Nov-12 00:26N 36°18' W 008°08'2912.5
2017-Nov-11 22:06N 36°26' W 008°43'112.4
2017-Nov-11 22:00N 36°26' W 008°45'612.6
2017-Nov-11 21:30N 36°28' W 008°52'612.5
2017-Nov-11 21:00N 36°30' W 008°60'612.6
2017-Nov-11 20:30N 36°32' W 009°07'612.5
2017-Nov-11 20:00N 36°33' W 009°15'612.3
2017-Nov-11 19:30N 36°37' W 009°21'612.8
2017-Nov-11 19:00N 36°41' W 009°26'714.7
2017-Nov-11 18:31N 36°47' W 009°33'714.8
2017-Nov-11 18:01N 36°54' W 009°35'714.6
2017-Nov-11 17:31N 37°01' W 009°37'714.8
2017-Nov-11 17:00N 37°08' W 009°35'715.0
2017-Nov-11 16:31N 37°15' W 009°31'714.4
2017-Nov-11 16:00N 37°21' W 009°25'714.7
2017-Nov-11 15:31N 37°26' W 009°19'714.8
2017-Nov-11 15:00N 37°32' W 009°13'714.8
2017-Nov-11 14:31N 37°37' W 009°07'815.2
2017-Nov-11 14:00N 37°43' W 009°00'815.3
2017-Nov-11 13:31N 37°49' W 008°54'713.7
2017-Nov-11 13:00N 37°55' W 008°50'1 2.3
2017-Nov-11 12:29N 37°56' W 008°51'0 0.0
2017-Nov-11 11:59N 37°56' W 008°51'0 0.0
2017-Nov-11 11:26N 37°56' W 008°51'0 0.0
2017-Nov-11 10:59N 37°56' W 008°51'0 0.0
2017-Nov-11 10:29N 37°56' W 008°51'0 0.0
2017-Nov-11 09:58N 37°56' W 008°51'0 0.0
2017-Nov-11 09:28N 37°56' W 008°51'0 0.0
2017-Nov-11 08:58N 37°56' W 008°51'0 0.0
2017-Nov-11 08:28N 37°56' W 008°51'0 0.0
2017-Nov-11 08:00N 37°56' W 008°51'1 1.6
2017-Nov-11 07:30N 37°55' W 008°50'2 3.7
2017-Nov-11 07:00N 37°53' W 008°50'3 5.6
2017-Nov-11 06:30N 37°51' W 008°53'5 9.8
2017-Nov-11 06:00N 37°52' W 008°59'714.5
2017-Nov-11 05:30N 37°52' W 009°08'815.9
2017-Nov-11 05:00N 37°53' W 009°18'815.6
2017-Nov-11 04:30N 37°56' W 009°27'816.2
2017-Nov-11 04:00N 37°58' W 009°37'816.7
2017-Nov-11 03:30N 37°60' W 009°48'816.4
2017-Nov-11 03:00N 38°02' W 009°58'816.7
2017-Nov-11 02:30N 38°04' W 010°08'916.9
2017-Nov-11 01:59N 38°06' W 010°19'816.8
2017-Nov-11 01:30N 38°08' W 010°29'  
Track history (hours):
 
Tides and Currents Weather Stations Pressure Air Temp Water Temp Dewpoint Dewpoint Depression Visibility Wind Speed Wind Dir Waves Ship Positions

MSC Eleni

Last reported at 2017-Nov-17 13:48 UTC. Time now 2017-Nov-22 16:49 UTC.
Position N 35°57' W 005°33'.

Length 294 m; draft 8.2 m.

Type: Ship (hazmat cat A). MMSI: 357067000.

Date/timePositionNaut miles runAvg speedWind from/ knotsBaromVisibWave heightAir tempDewpointWater temp
2017-Nov-17 13:48N 35°57' W 005°33'310.8
2017-Nov-17 13:30N 35°58' W 005°30'612.3
2017-Nov-17 13:00N 36°01' W 005°23'713.4
2017-Nov-17 12:30N 36°03' W 005°15'223 8.9
2017-Nov-16 11:33N 37°20' W 000°54'113.4
2017-Nov-16 11:27N 37°21' W 000°53'613.2
2017-Nov-16 11:00N 37°25' W 000°47'713.2
2017-Nov-16 10:30N 37°29' W 000°41'713.4
2017-Nov-16 10:00N 37°33' W 000°35'713.4
2017-Nov-16 09:30N 37°39' W 000°29'713.4
2017-Nov-16 09:00N 37°45' W 000°25'713.6
2017-Nov-16 08:30N 37°51' W 000°21'713.6
2017-Nov-16 08:00N 37°57' W 000°18'210 5.7
2017-Nov-14 19:21N 40°59' E 001°57'514.3
2017-Nov-14 19:00N 41°04' E 002°01'817.1
2017-Nov-14 18:30N 41°11' E 002°06'713.7
2017-Nov-14 17:58N 41°18' E 002°10'1 0.1
2017-Nov-14 06:16N 41°19' E 002°09'1 1.9
2017-Nov-14 05:37N 41°18' E 002°11'1 6.1
2017-Nov-14 05:30N 41°18' E 002°11'5 6.2
2017-Nov-14 04:44N 41°13' E 002°12'310.5
2017-Nov-14 04:24N 41°10' E 002°14'610.6
2017-Nov-14 03:48N 41°04' E 002°11'411.4
2017-Nov-14 03:27N 41°01' E 002°08'45811.6
2017-Nov-12 11:51N 35°59' W 005°13'412.5
2017-Nov-12 11:30N 35°58' W 005°18'612.3
2017-Nov-12 11:00N 35°57' W 005°25'11512.5
2017-Nov-12 01:50N 36°13' W 007°47'413.1
2017-Nov-12 01:30N 36°14' W 007°52'1413.1
2017-Nov-12 00:26N 36°18' W 008°08'2912.5
2017-Nov-11 22:06N 36°26' W 008°43'112.4
2017-Nov-11 22:00N 36°26' W 008°45'612.6
2017-Nov-11 21:30N 36°28' W 008°52'612.5
2017-Nov-11 21:00N 36°30' W 008°60'612.6
2017-Nov-11 20:30N 36°32' W 009°07'612.5
2017-Nov-11 20:00N 36°33' W 009°15'612.3
2017-Nov-11 19:30N 36°37' W 009°21'612.8
2017-Nov-11 19:00N 36°41' W 009°26'714.7
2017-Nov-11 18:31N 36°47' W 009°33'714.8
2017-Nov-11 18:01N 36°54' W 009°35'714.6
2017-Nov-11 17:31N 37°01' W 009°37'714.8
2017-Nov-11 17:00N 37°08' W 009°35'715.0
2017-Nov-11 16:31N 37°15' W 009°31'714.4
2017-Nov-11 16:00N 37°21' W 009°25'714.7
2017-Nov-11 15:31N 37°26' W 009°19'714.8
2017-Nov-11 15:00N 37°32' W 009°13'714.8
2017-Nov-11 14:31N 37°37' W 009°07'815.2
2017-Nov-11 14:00N 37°43' W 009°00'815.3
2017-Nov-11 13:31N 37°49' W 008°54'713.7
2017-Nov-11 13:00N 37°55' W 008°50'1 2.3
2017-Nov-11 12:29N 37°56' W 008°51'0 0.0
2017-Nov-11 11:59N 37°56' W 008°51'0 0.0
2017-Nov-11 11:26N 37°56' W 008°51'0 0.0
2017-Nov-11 10:59N 37°56' W 008°51'0 0.0
2017-Nov-11 10:29N 37°56' W 008°51'0 0.0
2017-Nov-11 09:58N 37°56' W 008°51'0 0.0
2017-Nov-11 09:28N 37°56' W 008°51'0 0.0
2017-Nov-11 08:58N 37°56' W 008°51'0 0.0
2017-Nov-11 08:28N 37°56' W 008°51'0 0.0
2017-Nov-11 08:00N 37°56' W 008°51'1 1.6
2017-Nov-11 07:30N 37°55' W 008°50'2 3.7
2017-Nov-11 07:00N 37°53' W 008°50'3 5.6
2017-Nov-11 06:30N 37°51' W 008°53'5 9.8
2017-Nov-11 06:00N 37°52' W 008°59'714.5
2017-Nov-11 05:30N 37°52' W 009°08'815.9
2017-Nov-11 05:00N 37°53' W 009°18'815.6
2017-Nov-11 04:30N 37°56' W 009°27'816.2
2017-Nov-11 04:00N 37°58' W 009°37'816.7
2017-Nov-11 03:30N 37°60' W 009°48'816.4
2017-Nov-11 03:00N 38°02' W 009°58'816.7
2017-Nov-11 02:30N 38°04' W 010°08'916.9
2017-Nov-11 01:59N 38°06' W 010°19'816.8
2017-Nov-11 01:30N 38°08' W 010°29'  

Dump ship's entire track history